Time;durP1;ratioP1;P1;durP2;ratioP2;P2;SDS_P1;SDS_P2;PMS_P1;PMS_P2;Temp;Humidity;BMP_temperature;BMP_pressure;BME280_temperature;BME280_humidity;BME280_pressure;Samples;Min_cycle;Max_cycle;Signal;HPM_P1;HPM_P2
2023/01/03 00:02:10;;;;;;;8.85;6.05;;;;;10.30;102310.00;;;;5047916;28;20199;-76
2023/01/03 00:04:37;;;;;;;10.30;5.95;;;;;10.20;102317.00;;;;5051502;28;20202;-76
2023/01/03 00:07:05;;;;;;;7.20;5.57;;;;;10.20;102319.00;;;;5049809;28;20431;-76
2023/01/03 00:09:32;;;;;;;8.00;5.03;;;;;10.20;102324.00;;;;5047054;28;20188;-76
2023/01/03 00:14:45;;;;;;;6.78;4.93;;;;;10.20;102325.00;;;;5066409;28;20580;-76
2023/01/03 00:17:13;;;;;;;7.10;5.25;;;;;10.20;102325.00;;;;5059025;28;20199;-76
2023/01/03 00:19:43;;;;;;;7.85;5.55;;;;;10.20;102326.00;;;;5070465;28;20231;-76
2023/01/03 00:22:11;;;;;;;8.27;5.22;;;;;10.20;102338.00;;;;5067106;28;20199;-76
2023/01/03 00:24:39;;;;;;;5.65;4.82;;;;;10.20;102330.00;;;;5050809;28;20204;-76
2023/01/03 00:27:08;;;;;;;7.78;5.20;;;;;10.20;102333.00;;;;5051144;28;20922;-76
2023/01/03 00:29:35;;;;;;;6.57;4.82;;;;;10.30;102336.00;;;;5065963;28;20202;-76
2023/01/03 00:32:03;;;;;;;7.43;5.35;;;;;10.30;102348.00;;;;5070183;28;20214;-76
2023/01/03 00:34:31;;;;;;;9.00;6.05;;;;;10.30;102346.00;;;;5070948;28;20242;-76
2023/01/03 00:36:58;;;;;;;7.63;6.55;;;;;10.30;102346.00;;;;5070557;28;20575;-76
2023/01/03 00:39:26;;;;;;;6.72;6.00;;;;;10.30;102348.00;;;;5055892;28;20234;-76
2023/01/03 00:41:54;;;;;;;9.13;6.25;;;;;10.40;102349.00;;;;5050720;28;20199;-76
2023/01/03 00:44:24;;;;;;;7.70;6.07;;;;;10.40;102346.00;;;;5070296;28;20223;-76
2023/01/03 00:46:51;;;;;;;9.75;5.05;;;;;10.40;102346.00;;;;5050988;28;20222;-76
2023/01/03 00:49:19;;;;;;;7.55;5.47;;;;;10.40;102347.00;;;;5050781;28;20203;-76
2023/01/03 00:51:46;;;;;;;6.57;5.43;;;;;10.40;102340.00;;;;5050661;28;20207;-76
2023/01/03 00:54:14;;;;;;;8.07;5.32;;;;;10.50;102348.00;;;;5050066;28;20196;-76
2023/01/03 00:56:43;;;;;;;7.70;4.53;;;;;10.50;102346.00;;;;5050649;28;20191;-76
2023/01/03 00:59:11;;;;;;;8.35;5.60;;;;;10.50;102352.00;;;;5050939;28;20239;-76
2023/01/03 01:01:42;;;;;;;7.20;5.85;;;;;10.50;102347.00;;;;5060772;28;20199;-76
2023/01/03 01:04:12;;;;;;;5.82;4.65;;;;;10.50;102348.00;;;;5062320;28;20551;-76
2023/01/03 01:06:41;;;;;;;7.53;4.82;;;;;10.60;102350.00;;;;5052003;28;20188;-76
2023/01/03 01:09:12;;;;;;;5.45;4.35;;;;;10.50;102359.00;;;;5050032;28;20207;-76
2023/01/03 01:11:40;;;;;;;5.47;4.25;;;;;10.50;102364.00;;;;5049404;28;20211;-76
2023/01/03 01:14:19;;;;;;;8.68;4.30;;;;;10.50;102355.00;;;;5050774;28;20199;-76
2023/01/03 01:16:50;;;;;;;6.90;4.63;;;;;10.50;102368.00;;;;5050394;28;20227;-76
2023/01/03 01:19:18;;;;;;;8.43;4.22;;;;;10.50;102364.00;;;;5056237;28;20233;-76
2023/01/03 01:21:45;;;;;;;5.50;4.10;;;;;10.50;102367.00;;;;5050283;28;20207;-76
2023/01/03 01:24:13;;;;;;;6.43;3.60;;;;;10.50;102369.00;;;;5050117;28;20196;-76
2023/01/03 01:26:41;;;;;;;5.63;4.07;;;;;10.50;102368.00;;;;5049850;28;20609;-76
2023/01/03 01:29:10;;;;;;;6.50;4.63;;;;;10.50;102368.00;;;;5050087;28;20219;-76
2023/01/03 01:31:37;;;;;;;5.07;3.80;;;;;10.50;102362.00;;;;5049784;28;20560;-76
2023/01/03 01:34:06;;;;;;;6.68;4.13;;;;;10.50;102375.00;;;;5060408;28;20198;-77
2023/01/03 01:36:36;;;;;;;5.68;4.57;;;;;10.60;102367.00;;;;5059558;28;20204;-76
2023/01/03 01:39:07;;;;;;;5.50;4.05;;;;;10.50;102376.00;;;;5049379;28;20310;-76
2023/01/03 01:44:46;;;;;;;5.53;4.05;;;;;10.40;102381.00;;;;5049433;28;20229;-76
2023/01/03 01:47:17;;;;;;;5.05;4.00;;;;;10.50;102374.00;;;;5048789;28;20209;-76
2023/01/03 01:49:48;;;;;;;5.93;4.20;;;;;10.50;102384.00;;;;5050297;28;20196;-76
2023/01/03 01:52:18;;;;;;;6.68;4.95;;;;;10.50;102375.00;;;;5049707;28;20191;-76
2023/01/03 01:54:47;;;;;;;7.20;4.65;;;;;10.50;102381.00;;;;5049987;28;20210;-77
2023/01/03 01:57:18;;;;;;;5.38;4.10;;;;;10.50;102383.00;;;;5049463;28;20212;-76
2023/01/03 01:59:45;;;;;;;6.15;4.47;;;;;10.50;102381.00;;;;5049495;28;20230;-76
2023/01/03 02:02:16;;;;;;;7.22;4.28;;;;;10.50;102372.00;;;;5049947;28;20199;-76
2023/01/03 02:04:47;;;;;;;6.18;4.78;;;;;10.50;102383.00;;;;5049991;28;20195;-76
2023/01/03 02:07:15;;;;;;;6.07;4.95;;;;;10.50;102377.00;;;;5050324;28;20378;-76
2023/01/03 02:09:42;;;;;;;4.97;4.45;;;;;10.50;102366.00;;;;5051809;28;20202;-76
2023/01/03 02:15:15;;;;;;;5.93;4.38;;;;;10.40;102364.00;;;;5068525;28;20206;-76
2023/01/03 02:17:51;;;;;;;6.93;4.53;;;;;10.40;102370.00;;;;5050260;28;20196;-76
2023/01/03 02:20:29;;;;;;;6.60;4.63;;;;;10.40;102374.00;;;;5049200;28;20230;-76
2023/01/03 02:23:16;;;;;;;8.95;5.47;;;;;10.40;102371.00;;;;5067765;28;20206;-76
2023/01/03 02:26:03;;;;;;;8.70;4.90;;;;;10.40;102375.00;;;;5069722;28;20207;-76
2023/01/03 02:29:01;;;;;;;8.10;5.45;;;;;10.40;102382.00;;;;5051095;28;20800;-76
2023/01/03 02:31:38;;;;;;;11.15;5.70;;;;;10.40;102387.00;;;;5049120;28;20199;-76
2023/01/03 02:34:13;;;;;;;10.55;6.43;;;;;10.40;102387.00;;;;5051980;28;20221;-76
2023/01/03 02:36:47;;;;;;;9.25;5.80;;;;;10.40;102397.00;;;;5069430;28;20199;-76
2023/01/03 02:39:22;;;;;;;9.95;6.18;;;;;10.40;102396.00;;;;5069136;28;20565;-76
2023/01/03 02:42:56;;;;;;;11.90;6.20;;;;;10.40;102401.00;;;;5069110;28;20195;-76
2023/01/03 02:44:53;;;;;;;9.85;5.75;;;;;10.40;102402.00;;;;5057614;28;20242;-76
2023/01/03 02:47:25;;;;;;;10.07;5.80;;;;;10.50;102395.00;;;;5048969;28;20203;-76
2023/01/03 02:49:53;;;;;;;7.72;5.40;;;;;10.50;102392.00;;;;5049214;28;20211;-76
2023/01/03 02:52:24;;;;;;;8.43;6.40;;;;;10.50;102391.00;;;;5048659;28;20199;-76
2023/01/03 02:54:57;;;;;;;9.90;5.53;;;;;10.50;102387.00;;;;5048127;28;20204;-76
2023/01/03 02:57:31;;;;;;;8.07;5.82;;;;;10.40;102388.00;;;;5048809;28;20192;-76
2023/01/03 03:00:06;;;;;;;10.63;5.70;;;;;10.50;102391.00;;;;5048723;28;20249;-77
2023/01/03 03:02:38;;;;;;;10.15;5.88;;;;;10.50;102393.00;;;;5064438;28;20709;-76
2023/01/03 03:05:10;;;;;;;11.85;6.05;;;;;10.50;102377.00;;;;5068676;28;20231;-76
2023/01/03 03:07:39;;;;;;;11.55;6.68;;;;;10.50;102381.00;;;;5068603;28;20253;-76
2023/01/03 03:13:13;;;;;;;12.48;6.75;;;;;10.50;102383.00;;;;5029148;28;20310;-76
2023/01/03 03:15:47;;;;;;;10.57;5.40;;;;;10.50;102378.00;;;;5066801;28;20683;-76
2023/01/03 03:18:19;;;;;;;9.18;6.35;;;;;10.50;102378.00;;;;5055216;28;20286;-76
2023/01/03 03:26:25;;;;;;;10.82;6.15;;;;;10.60;102371.00;;;;5047872;28;20211;-76
2023/01/03 03:28:56;;;;;;;10.82;6.45;;;;;10.70;102376.00;;;;5048353;28;20219;-76
2023/01/03 03:31:30;;;;;;;8.60;6.35;;;;;10.70;102369.00;;;;5061340;28;20205;-76
2023/01/03 03:34:05;;;;;;;8.65;6.60;;;;;10.70;102372.00;;;;5068305;28;20661;-76
2023/01/03 03:36:39;;;;;;;23.77;5.65;;;;;10.80;102370.00;;;;5049230;28;20666;-76
2023/01/03 03:44:59;;;;;;;16.00;6.10;;;;;10.80;102368.00;;;;5048041;28;20210;-76
2023/01/03 03:45:04;;;;;;;10.00;5.93;;;;;10.80;102375.00;;;;5047913;28;20226;-76
2023/01/03 03:47:40;;;;;;;16.45;5.82;;;;;10.80;102371.00;;;;5047218;28;20709;-76
2023/01/03 03:50:13;;;;;;;16.45;5.90;;;;;10.90;102376.00;;;;5060937;28;20569;-76
2023/01/03 03:52:45;;;;;;;16.48;5.50;;;;;10.90;102375.00;;;;5060283;28;20611;-76
2023/01/03 03:55:16;;;;;;;12.13;5.85;;;;;10.90;102373.00;;;;5051750;28;20211;-76
2023/01/03 03:57:48;;;;;;;11.38;4.80;;;;;10.90;102382.00;;;;5052013;28;20580;-76
2023/01/03 04:00:20;;;;;;;8.60;5.45;;;;;10.90;102384.00;;;;5052276;28;20234;-76
2023/01/03 04:02:48;;;;;;;14.07;5.00;;;;;11.00;102383.00;;;;5051053;28;20276;-76
2023/01/03 04:05:22;;;;;;;13.07;3.95;;;;;11.00;102388.00;;;;5051810;28;20187;-76
2023/01/03 04:07:49;;;;;;;12.65;4.78;;;;;11.00;102391.00;;;;5051754;28;20192;-76
2023/01/03 04:10:19;;;;;;;6.28;5.30;;;;;11.00;102398.00;;;;5065999;28;20242;-76
2023/01/03 04:12:47;;;;;;;15.23;5.35;;;;;11.00;102392.00;;;;5071704;28;20252;-76
2023/01/03 04:15:14;;;;;;;12.23;5.70;;;;;11.00;102394.00;;;;5070958;28;20234;-76
2023/01/03 04:17:42;;;;;;;11.95;4.65;;;;;11.10;102394.00;;;;5070322;28;20584;-76
2023/01/03 04:20:10;;;;;;;15.18;5.53;;;;;11.10;102398.00;;;;5058287;28;20231;-76
2023/01/03 04:22:39;;;;;;;9.02;4.93;;;;;11.10;102401.00;;;;5050666;28;20204;-76
2023/01/03 04:25:07;;;;;;;7.85;5.15;;;;;11.10;102401.00;;;;5051131;28;20697;-76
2023/01/03 04:27:34;;;;;;;9.18;4.30;;;;;11.10;102399.00;;;;5050980;28;20694;-77
2023/01/03 04:30:01;;;;;;;7.57;5.22;;;;;11.10;102408.00;;;;5050940;28;20215;-76
2023/01/03 04:32:29;;;;;;;9.68;5.18;;;;;11.10;102416.00;;;;5059930;28;20211;-76
2023/01/03 04:34:56;;;;;;;9.77;6.25;;;;;11.10;102410.00;;;;5071138;28;20230;-76
2023/01/03 04:37:23;;;;;;;10.85;5.78;;;;;11.10;102402.00;;;;5071057;28;20752;-78
2023/01/03 04:39:52;;;;;;;7.38;5.35;;;;;11.10;102412.00;;;;5070889;28;20195;-78
2023/01/03 04:45:04;;;;;;;7.03;5.80;;;;;11.10;102416.00;;;;5050306;28;20230;-78
2023/01/03 04:47:31;;;;;;;7.88;6.28;;;;;11.10;102414.00;;;;5049135;28;20665;-77
2023/01/03 04:49:58;;;;;;;8.02;6.28;;;;;11.10;102409.00;;;;5068895;28;20226;-78
2023/01/03 04:52:26;;;;;;;7.43;6.10;;;;;11.10;102407.00;;;;5069478;28;20206;-78
2023/01/03 04:54:54;;;;;;;10.90;6.78;;;;;11.10;102410.00;;;;5068715;28;20206;-78
2023/01/03 04:57:22;;;;;;;8.48;6.78;;;;;11.10;102402.00;;;;5069796;28;20198;-75
2023/01/03 04:59:49;;;;;;;9.85;6.90;;;;;11.00;102406.00;;;;5065247;28;20818;-76
2023/01/03 05:02:16;;;;;;;9.20;7.60;;;;;11.00;102398.00;;;;5049117;28;20237;-76
2023/01/03 05:04:43;;;;;;;8.15;7.00;;;;;11.00;102413.00;;;;5049462;28;20565;-76
2023/01/03 05:07:10;;;;;;;9.82;6.47;;;;;11.00;102415.00;;;;5048858;28;20192;-76
2023/01/03 05:09:38;;;;;;;9.20;7.15;;;;;11.00;102413.00;;;;5049181;28;20199;-76
2023/01/03 05:12:07;;;;;;;9.30;7.65;;;;;10.90;102408.00;;;;5048559;28;20223;-76
2023/01/03 05:14:35;;;;;;;11.30;7.70;;;;;10.90;102412.00;;;;5048932;28;20212;-76
2023/01/03 05:17:03;;;;;;;10.68;7.72;;;;;10.90;102410.00;;;;5052863;28;20199;-76
2023/01/03 05:19:30;;;;;;;9.02;7.30;;;;;10.90;102411.00;;;;5068569;28;20809;-76
2023/01/03 05:27:28;;;;;;;9.30;6.40;;;;;10.70;102399.00;;;;5068566;28;20318;-76
2023/01/03 05:29:57;;;;;;;11.00;8.70;;;;;10.70;102400.00;;;;5068939;28;20206;-76
2023/01/03 05:32:24;;;;;;;10.90;7.63;;;;;10.70;102401.00;;;;5068375;28;20553;-76
2023/01/03 05:34:51;;;;;;;9.38;7.70;;;;;10.70;102396.00;;;;5060621;28;20202;-76
2023/01/03 05:37:18;;;;;;;12.10;8.32;;;;;10.60;102391.00;;;;5069066;28;20198;-76
2023/01/03 05:39:46;;;;;;;10.93;8.32;;;;;10.60;102393.00;;;;5068839;28;20213;-76
2023/01/03 05:42:13;;;;;;;9.70;7.63;;;;;10.60;102390.00;;;;5068272;28;20704;-76
2023/01/03 05:44:41;;;;;;;9.93;7.47;;;;;10.60;102397.00;;;;5032504;28;1038090;-76
2023/01/03 05:47:09;;;;;;;9.93;7.53;;;;;10.50;102395.00;;;;5068488;28;20202;-76
2023/01/03 05:49:36;;;;;;;11.57;7.88;;;;;10.50;102398.00;;;;5069993;28;20568;-76
2023/01/03 05:52:03;;;;;;;11.95;7.90;;;;;10.50;102385.00;;;;5056197;28;20215;-76
2023/01/03 05:54:31;;;;;;;10.40;8.18;;;;;10.50;102373.00;;;;5048525;28;20212;-76
2023/01/03 05:56:58;;;;;;;9.18;7.38;;;;;10.40;102374.00;;;;5050211;28;20195;-76
2023/01/03 05:59:25;;;;;;;9.45;7.50;;;;;10.40;102381.00;;;;5048694;28;20191;-76
2023/01/03 06:01:54;;;;;;;10.13;7.47;;;;;10.40;102377.00;;;;5048706;28;20782;-76
2023/01/03 06:04:21;;;;;;;9.35;7.18;;;;;10.30;102375.00;;;;5048641;28;20207;-76
2023/01/03 06:06:48;;;;;;;9.43;6.82;;;;;10.30;102367.00;;;;5048672;28;20192;-77
2023/01/03 06:09:16;;;;;;;11.18;7.03;;;;;10.30;102370.00;;;;5048972;28;20211;-77
2023/01/03 06:11:44;;;;;;;10.38;7.50;;;;;10.30;102375.00;;;;5049233;28;20219;-77
2023/01/03 06:14:11;;;;;;;7.80;6.65;;;;;10.20;102371.00;;;;5052458;28;20225;-76
2023/01/03 06:19:24;;;;;;;8.35;6.65;;;;;10.20;102377.00;;;;5048755;28;20203;-76
2023/01/03 06:21:51;;;;;;;8.60;6.60;;;;;10.20;102369.00;;;;5054486;28;20226;-77
2023/01/03 06:24:18;;;;;;;11.10;6.78;;;;;10.20;102368.00;;;;5068842;28;20202;-76
2023/01/03 06:26:46;;;;;;;8.15;6.22;;;;;10.20;102364.00;;;;5049478;28;20199;-76
2023/01/03 06:29:13;;;;;;;8.57;6.63;;;;;10.20;102367.00;;;;5048960;28;20216;-76
2023/01/03 06:31:40;;;;;;;8.38;7.07;;;;;10.20;102370.00;;;;5053643;28;20202;-76
2023/01/03 06:34:07;;;;;;;6.53;5.75;;;;;10.20;102365.00;;;;5068496;28;20191;-76
2023/01/03 06:36:36;;;;;;;7.97;6.40;;;;;10.20;102367.00;;;;5068246;28;20195;-76
2023/01/03 06:39:03;;;;;;;9.48;6.70;;;;;10.20;102375.00;;;;5048790;28;20210;-77
2023/01/03 06:41:30;;;;;;;6.75;5.95;;;;;10.20;102373.00;;;;5048296;28;20221;-77
2023/01/03 06:43:58;;;;;;;9.77;7.10;;;;;10.20;102371.00;;;;5048971;28;20242;-77
2023/01/03 06:54:49;;;;;;;7.13;6.32;;;;;10.30;102378.00;;;;5036272;28;20222;-77
2023/01/03 06:57:16;;;;;;;9.93;7.18;;;;;10.40;102376.00;;;;5048560;28;20200;-76
2023/01/03 06:59:43;;;;;;;8.07;6.65;;;;;10.40;102369.00;;;;5049192;28;20211;-77
2023/01/03 07:02:10;;;;;;;9.60;7.18;;;;;10.40;102372.00;;;;5054460;28;20234;-76
2023/01/03 07:04:38;;;;;;;8.98;6.18;;;;;10.50;102364.00;;;;5049005;28;20191;-77
2023/01/03 07:07:06;;;;;;;8.20;6.13;;;;;10.50;102366.00;;;;5048798;28;20203;-76
2023/01/03 07:09:33;;;;;;;8.32;6.20;;;;;10.50;102360.00;;;;5048004;28;20519;-77
2023/01/03 07:13:57;;;;;;;7.88;6.45;;;;;10.60;102367.00;;;;5059666;28;20202;-76
2023/01/03 07:14:47;;;;;;;8.60;6.53;;;;;10.60;102370.00;;;;5068755;28;20202;-77
2023/01/03 07:17:15;;;;;;;6.90;5.63;;;;;10.70;102374.00;;;;5058918;28;20197;-76
2023/01/03 07:19:42;;;;;;;8.32;6.60;;;;;10.70;102366.00;;;;5066147;28;20195;-77
2023/01/03 07:22:11;;;;;;;9.68;5.97;;;;;10.70;102361.00;;;;5068971;28;20607;-77
2023/01/03 07:24:38;;;;;;;8.25;5.68;;;;;10.80;102368.00;;;;5068336;28;20206;-77
2023/01/03 07:27:05;;;;;;;6.40;5.13;;;;;10.80;102369.00;;;;5068235;28;20202;-76
2023/01/03 07:29:32;;;;;;;9.10;6.07;;;;;10.80;102394.00;;;;5067884;28;20187;-77
2023/01/03 07:32:00;;;;;;;7.72;5.70;;;;;10.90;102396.00;;;;5067445;28;20680;-76
2023/01/03 07:34:27;;;;;;;8.52;6.35;;;;;10.90;102390.00;;;;5051389;28;20666;-77
2023/01/03 07:36:54;;;;;;;7.72;6.03;;;;;10.90;102382.00;;;;5048379;28;20674;-77
2023/01/03 07:39:23;;;;;;;8.05;5.68;;;;;10.90;102371.00;;;;5047974;28;20207;-77
2023/01/03 07:44:35;;;;;;;7.50;5.30;;;;;10.90;102388.00;;;;5049135;28;20348;-77
2023/01/03 07:47:02;;;;;;;7.80;5.32;;;;;11.00;102382.00;;;;5048449;28;20204;-77
2023/01/03 07:49:29;;;;;;;7.03;5.05;;;;;11.00;102378.00;;;;5048634;28;20204;-77
2023/01/03 07:51:57;;;;;;;7.03;4.80;;;;;11.00;102390.00;;;;5047877;28;20211;-77
2023/01/03 07:54:25;;;;;;;7.47;5.40;;;;;11.10;102397.00;;;;5049198;28;20192;-77
2023/01/03 07:56:52;;;;;;;6.85;5.18;;;;;11.10;102404.00;;;;5067160;28;20207;-77
2023/01/03 07:59:20;;;;;;;6.60;5.25;;;;;11.10;102405.00;;;;5068254;28;20223;-77
2023/01/03 08:01:47;;;;;;;6.03;4.88;;;;;11.20;102385.00;;;;5066636;28;20219;-78
2023/01/03 08:04:14;;;;;;;8.38;6.10;;;;;11.20;102386.00;;;;5067773;28;20203;-78
2023/01/03 08:06:42;;;;;;;5.97;5.18;;;;;11.20;102377.00;;;;5064934;28;20202;-79
2023/01/03 08:14:40;;;;;;;7.07;4.90;;;;;11.30;102397.00;;;;5061735;28;20214;-78
2023/01/03 08:17:07;;;;;;;12.95;5.25;;;;;11.40;102396.00;;;;5066458;28;20206;-78
2023/01/03 08:19:35;;;;;;;6.57;4.65;;;;;11.40;102391.00;;;;5067522;28;20203;-78
2023/01/03 08:22:02;;;;;;;7.13;5.32;;;;;11.50;102396.00;;;;5054568;28;20768;-77
2023/01/03 08:24:29;;;;;;;7.25;5.70;;;;;11.50;102399.00;;;;5048178;28;20204;-78
2023/01/03 08:26:58;;;;;;;10.15;5.85;;;;;11.50;102395.00;;;;5067380;28;20199;-78
2023/01/03 08:29:25;;;;;;;7.32;5.55;;;;;11.60;102402.00;;;;5065758;28;20226;-78
2023/01/03 08:31:56;;;;;;;5.97;4.72;;;;;11.60;102407.00;;;;5066894;28;20203;-78
2023/01/03 08:34:25;;;;;;;6.55;5.05;;;;;11.60;102399.00;;;;5066709;28;20669;-77
2023/01/03 08:36:59;;;;;;;8.50;5.15;;;;;11.60;102403.00;;;;5067469;28;20256;-78
2023/01/03 08:39:28;;;;;;;6.25;4.97;;;;;11.70;102403.00;;;;5060972;28;20195;-78
2023/01/03 08:42:01;;;;;;;6.18;4.50;;;;;11.70;102408.00;;;;5058597;28;20223;-78
2023/01/03 08:44:28;;;;;;;5.95;4.65;;;;;11.70;102403.00;;;;5051210;28;20237;-78
2023/01/03 08:46:57;;;;;;;7.63;5.18;;;;;11.70;102402.00;;;;5051174;28;20196;-78
2023/01/03 08:49:26;;;;;;;6.95;4.65;;;;;11.80;102407.00;;;;5051295;28;20204;-78
2023/01/03 08:51:53;;;;;;;7.20;4.97;;;;;11.80;102412.00;;;;5059823;28;20580;-78
2023/01/03 08:54:21;;;;;;;7.97;4.57;;;;;11.80;102408.00;;;;5066068;28;20203;-78
2023/01/03 08:56:48;;;;;;;7.25;4.13;;;;;11.80;102423.00;;;;5050990;28;20203;-78
2023/01/03 08:59:16;;;;;;;7.10;4.57;;;;;11.80;102415.00;;;;5065402;28;20194;-78
2023/01/03 09:01:44;;;;;;;8.15;5.13;;;;;11.90;102418.00;;;;5054434;28;20688;-78
2023/01/03 09:04:11;;;;;;;6.90;5.00;;;;;11.90;102415.00;;;;5052869;28;20229;-78
2023/01/03 09:06:38;;;;;;;5.07;4.40;;;;;11.90;102413.00;;;;5067371;28;20202;-78
2023/01/03 09:09:06;;;;;;;9.38;5.22;;;;;12.00;102411.00;;;;5070890;28;20226;-78
2023/01/03 09:11:33;;;;;;;6.32;4.75;;;;;12.00;102408.00;;;;5070195;28;20205;-78
2023/01/03 09:14:00;;;;;;;10.43;5.03;;;;;12.00;102402.00;;;;5070270;28;20195;-78
2023/01/03 09:16:29;;;;;;;8.60;5.13;;;;;12.10;102400.00;;;;5054154;28;20650;-78
2023/01/03 09:18:56;;;;;;;8.80;5.82;;;;;12.10;102404.00;;;;5050349;28;20204;-78
2023/01/03 09:21:24;;;;;;;8.23;5.00;;;;;12.20;102399.00;;;;5050764;28;20266;-78
2023/01/03 09:23:52;;;;;;;9.48;5.80;;;;;12.20;102396.00;;;;5053809;28;20211;-78
2023/01/03 09:26:19;;;;;;;10.40;5.72;;;;;12.20;102395.00;;;;5068591;28;20198;-78
2023/01/03 09:28:46;;;;;;;10.75;5.82;;;;;12.30;102397.00;;;;5059234;28;20230;-78
2023/01/03 09:31:14;;;;;;;10.23;6.13;;;;;12.30;102394.00;;;;5052641;28;20200;-78
2023/01/03 09:33:42;;;;;;;9.30;6.90;;;;;12.30;102398.00;;;;5069263;28;20214;-78
2023/01/03 09:36:09;;;;;;;7.70;6.00;;;;;12.40;102404.00;;;;5070638;28;20195;-78
2023/01/03 09:38:37;;;;;;;9.25;6.32;;;;;12.40;102400.00;;;;5068440;28;20207;-78
2023/01/03 09:41:06;;;;;;;12.75;7.20;;;;;12.40;102405.00;;;;5069469;28;20203;-77
2023/01/03 09:43:39;;;;;;;10.02;7.13;;;;;12.40;102398.00;;;;5069545;28;20211;-78
2023/01/03 09:46:07;;;;;;;7.70;5.95;;;;;12.50;102396.00;;;;5070554;28;20191;-78
2023/01/03 09:48:36;;;;;;;8.32;6.38;;;;;12.50;102396.00;;;;5065328;28;20203;-78
2023/01/03 10:03:42;;;;;;;11.48;6.38;;;;;12.60;102395.00;;;;5062109;28;20210;-78
2023/01/03 10:05:35;;;;;;;13.57;7.53;;;;;12.70;102402.00;;;;5047916;28;20304;-78
2023/01/03 10:08:21;;;;;;;9.50;6.60;;;;;12.70;102392.00;;;;5049135;28;20208;-77
2023/01/03 10:10:56;;;;;;;10.40;6.55;;;;;12.80;102404.00;;;;5049454;28;20589;-78
2023/01/03 10:13:37;;;;;;;9.25;7.25;;;;;12.80;102408.00;;;;5066549;28;20202;-76
2023/01/03 10:16:11;;;;;;;12.07;7.28;;;;;12.90;102404.00;;;;5065686;28;20205;-77
2023/01/03 10:18:54;;;;;;;10.55;7.90;;;;;12.80;102412.00;;;;5068183;28;20199;-78
2023/01/03 10:21:30;;;;;;;10.02;7.40;;;;;12.90;102410.00;;;;5048251;28;20195;-76
2023/01/03 10:23:59;;;;;;;10.77;7.18;;;;;13.00;102412.00;;;;5048959;28;20214;-76
2023/01/03 10:26:31;;;;;;;11.30;7.15;;;;;13.00;102415.00;;;;5048395;28;20203;-78
2023/01/03 10:28:59;;;;;;;10.68;6.88;;;;;13.10;102417.00;;;;5047540;28;20216;-78
2023/01/03 10:31:37;;;;;;;10.63;7.10;;;;;13.10;102410.00;;;;5048189;28;20210;-77
2023/01/03 10:34:06;;;;;;;9.50;6.53;;;;;13.20;102408.00;;;;5047412;28;20559;-78
2023/01/03 10:36:34;;;;;;;10.63;7.32;;;;;13.20;102402.00;;;;5048184;28;20624;-78
2023/01/03 10:39:09;;;;;;;12.43;7.10;;;;;13.20;102405.00;;;;5047240;28;20203;-78
2023/01/03 10:41:42;;;;;;;15.63;7.85;;;;;13.20;102404.00;;;;5057571;28;20592;-77
2023/01/03 10:44:22;;;;;;;9.73;6.85;;;;;13.20;102411.00;;;;5067510;28;20629;-78
2023/01/03 10:46:52;;;;;;;10.48;6.68;;;;;13.30;102402.00;;;;5066413;28;20229;-78
2023/01/03 10:49:20;;;;;;;11.27;6.85;;;;;13.30;102406.00;;;;5068829;28;20209;-78
2023/01/03 10:51:54;;;;;;;9.57;6.55;;;;;13.20;102404.00;;;;5068854;28;20460;-78
2023/01/03 10:54:31;;;;;;;12.48;7.25;;;;;13.30;102410.00;;;;5067021;28;20203;-78
2023/01/03 10:56:58;;;;;;;10.32;6.68;;;;;13.40;102406.00;;;;5058321;28;20461;-78
2023/01/03 10:59:28;;;;;;;9.70;6.82;;;;;13.40;102411.00;;;;5065211;28;20203;-78
2023/01/03 11:01:58;;;;;;;10.88;7.82;;;;;13.40;102407.00;;;;5065989;28;20218;-78
2023/01/03 11:04:26;;;;;;;11.18;7.43;;;;;13.40;102411.00;;;;5063878;28;20194;-77
2023/01/03 11:07:03;;;;;;;10.25;7.93;;;;;13.40;102407.00;;;;5068945;28;20213;-77
2023/01/03 11:09:41;;;;;;;8.43;6.32;;;;;13.40;102408.00;;;;5068454;28;20573;-77
2023/01/03 11:12:14;;;;;;;11.30;6.57;;;;;13.40;102400.00;;;;5067909;28;20195;-78
2023/01/03 11:14:50;;;;;;;8.70;6.32;;;;;13.40;102398.00;;;;5054896;28;20574;-77
2023/01/03 11:17:20;;;;;;;13.57;7.35;;;;;13.50;102392.00;;;;5048711;28;20202;-78
2023/01/03 11:19:48;;;;;;;10.27;8.07;;;;;13.60;102385.00;;;;5048273;28;20250;-78
2023/01/03 11:22:27;;;;;;;9.68;6.78;;;;;13.60;102386.00;;;;5048975;28;20250;-78
2023/01/03 11:25:10;;;;;;;11.10;7.28;;;;;13.60;102384.00;;;;5047988;28;20199;-78
2023/01/03 11:27:53;;;;;;;10.77;6.47;;;;;13.60;102389.00;;;;5047973;28;20219;-78
2023/01/03 11:30:29;;;;;;;11.82;7.63;;;;;13.70;102392.00;;;;5048520;28;20199;-78
2023/01/03 11:33:07;;;;;;;10.60;7.55;;;;;13.70;102387.00;;;;5047878;28;20200;-78
2023/01/03 11:35:52;;;;;;;11.27;6.90;;;;;13.70;102390.00;;;;5063226;28;20195;-78
2023/01/03 11:38:34;;;;;;;11.10;6.72;;;;;13.80;102378.00;;;;5068225;28;20256;-78
2023/01/03 11:41:13;;;;;;;10.82;7.50;;;;;13.80;102375.00;;;;5068856;28;20194;-78
2023/01/03 11:43:53;;;;;;;10.32;7.72;;;;;13.80;102361.00;;;;5065187;28;20235;-77
2023/01/03 11:46:45;;;;;;;12.18;8.23;;;;;13.80;102358.00;;;;5056915;28;20574;-78
2023/01/03 11:49:27;;;;;;;9.98;7.57;;;;;13.80;102351.00;;;;5053885;28;20219;-78
2023/01/03 11:52:10;;;;;;;8.80;6.47;;;;;13.90;102347.00;;;;5048174;28;20210;-78
2023/01/03 11:55:06;;;;;;;13.60;7.57;;;;;13.90;102350.00;;;;5047476;28;20207;-77
2023/01/03 11:57:44;;;;;;;10.40;7.93;;;;;13.90;102353.00;;;;5060773;28;20203;-78
2023/01/03 12:00:16;;;;;;;10.55;7.55;;;;;14.00;102342.00;;;;5068214;28;20292;-78
2023/01/03 12:03:02;;;;;;;9.73;7.20;;;;;14.00;102340.00;;;;5067420;28;20226;-78
2023/01/03 12:05:43;;;;;;;8.85;6.85;;;;;14.00;102340.00;;;;5058557;28;20207;-78
2023/01/03 12:08:32;;;;;;;8.15;6.50;;;;;14.00;102343.00;;;;5047446;28;20195;-78
2023/01/03 12:11:10;;;;;;;10.32;6.55;;;;;14.10;102334.00;;;;5048752;28;20653;-78
2023/01/03 12:13:48;;;;;;;10.82;7.65;;;;;14.10;102330.00;;;;5050992;28;20207;-77
2023/01/03 12:16:22;;;;;;;13.20;7.20;;;;;14.20;102327.00;;;;5050774;28;20204;-78
2023/01/03 12:18:54;;;;;;;7.57;6.68;;;;;14.20;102321.00;;;;5051124;28;20669;-77
2023/01/03 12:21:32;;;;;;;9.00;6.88;;;;;14.10;102329.00;;;;5051429;28;20665;-78
2023/01/03 12:24:04;;;;;;;10.82;6.80;;;;;14.20;102331.00;;;;5050523;28;20234;-78
2023/01/03 12:26:33;;;;;;;11.35;6.63;;;;;14.20;102329.00;;;;5055102;28;20565;-77
2023/01/03 12:29:07;;;;;;;11.63;7.03;;;;;14.20;102323.00;;;;5061833;28;20682;-78
2023/01/03 12:31:37;;;;;;;9.85;6.47;;;;;14.20;102321.00;;;;5061350;28;20211;-77
2023/01/03 12:34:17;;;;;;;10.63;6.53;;;;;14.20;102324.00;;;;5051232;28;20218;-77
2023/01/03 12:36:53;;;;;;;7.70;5.57;;;;;14.30;102332.00;;;;5062532;28;20198;-77
2023/01/03 12:39:36;;;;;;;7.03;5.55;;;;;14.20;102315.00;;;;5066993;28;20191;-78
2023/01/03 12:42:10;;;;;;;10.73;6.32;;;;;14.30;102316.00;;;;5050762;28;20199;-75
2023/01/03 12:44:41;;;;;;;8.35;5.65;;;;;14.30;102321.00;;;;5065993;28;20230;-77
2023/01/03 12:47:17;;;;;;;8.18;5.50;;;;;14.30;102311.00;;;;5071108;28;20789;-78
2023/01/03 12:49:52;;;;;;;6.70;5.25;;;;;14.40;102316.00;;;;5070857;28;20211;-78
2023/01/03 12:52:22;;;;;;;6.78;5.07;;;;;14.40;102303.00;;;;5070798;28;20194;-78
2023/01/03 12:54:55;;;;;;;5.88;4.32;;;;;14.40;102307.00;;;;5065207;28;20191;-78
2023/01/03 12:57:46;;;;;;;6.25;4.47;;;;;14.40;102304.00;;;;5054386;28;20196;-77
2023/01/03 13:00:34;;;;;;;4.95;3.53;;;;;14.40;102314.00;;;;5059762;28;20210;-76
2023/01/03 13:03:07;;;;;;;8.13;4.10;;;;;14.50;102317.00;;;;5068719;28;20219;-76
2023/01/03 13:05:40;;;;;;;3.85;3.20;;;;;14.40;102324.00;;;;5070369;28;20195;-76
2023/01/03 13:08:15;;;;;;;3.42;2.65;;;;;14.50;102317.00;;;;5070437;28;20567;-76
2023/01/03 13:10:48;;;;;;;4.43;3.10;;;;;14.40;102313.00;;;;5056759;28;20200;-76
2023/01/03 13:13:19;;;;;;;3.90;3.40;;;;;14.50;102320.00;;;;5051658;28;20195;-76
2023/01/03 13:15:48;;;;;;;4.80;3.20;;;;;14.50;102312.00;;;;5050783;28;20203;-76
2023/01/03 13:18:36;;;;;;;3.78;2.83;;;;;14.40;102314.00;;;;5054247;28;20199;-76
2023/01/03 13:21:47;;;;;;;2.92;2.63;;;;;14.40;102301.00;;;;5067938;28;20282;-76
2023/01/03 13:24:42;;;;;;;3.45;2.67;;;;;14.40;102297.00;;;;5070356;28;20223;-76
2023/01/03 13:27:34;;;;;;;5.18;2.63;;;;;14.40;102290.00;;;;5069424;28;20213;-76